Terminal Aerodrome Forecast
Issued by NWS Jackson, MS

Home | Current Version | Previous Version | Text Only | Print | Product List | Glossary On
Versions: 1 2 3 4 5 6 7 8 9 10 11 12
100
FTUS44 KJAN 101740
TAFGWO
TAF
KGWO 101740Z 1018/1118 34006KT P6SM SKC
     FM110000 19004KT P6SM SKC
     FM111400 28010KT P6SM FEW250
     FM111700 34010KT P6SM SCT250=

USA.gov is the U.S. government's official web portal to all federal, state and local government web resources and services.